• Join FlightAware (Why Join?)
  • Login
  • US Flag 
12:47AM EDT


 

Airport Tracker/Info


-or-


 

Live Flight TrackerFlight Track Log ✈ N56210 ✈ 07-Jul-2013 ✈ LEMD / MAD - KBAF

Flight Track Log - Related Links

Times and Time Zones

All times are in EDT time to prevent confusion due to time zone crossing. See the N56210 flight status page for this flight to view local times or setup timezone preferences in your user account.

Time Position Orientation Groundspeed Altitude Reporting Facility
EDT Latitude Longitude Course Direction KTS MPH feet Rate Location/Type
08:43AM 41.3667 -73.0833 21° North 131 151 3,500  Level New York TRACON
08:44AM 41.4000 -73.0667 21° North 132 152 3,500 -60 Level New York TRACON
08:45AM 41.4442 -73.0522 14° North 132 152 3,400 -60 Descending Boston Center
08:46AM 41.4797 -73.0358 19° North 131 151 3,400  Level Boston Center
08:47AM 41.5111 -73.0222 18° North 130 150 3,400  Level Boston Center
08:48AM 41.5467 -73.0058 19° North 132 152 3,400  Level Boston Center
08:49AM 41.5822 -72.9867 22° Northeast 129 148 3,400  Level Boston Center
08:50AM 41.6197 -72.9678 21° North 128 147 3,500  Climbing Boston Center
08:51AM 41.6511 -72.9542 18° North 127 146 3,500  Level Boston Center
08:52AM 41.6825 -72.9403 18° North 127 146 3,500 -60 Level Boston Center
08:53AM 41.7178 -72.9211 22° Northeast 127 146 3,400 -60 Descending Boston Center
08:54AM 41.7492 -72.9075 18° North 126 145 3,400  Level Boston Center
08:55AM 41.7806 -72.8883 24° Northeast 125 144 3,400  Level Boston Center
08:56AM 41.8119 -72.8772 15° North 125 144 3,500  Climbing Boston Center
08:57AM 41.8472 -72.8581 22° Northeast 125 144 3,400 -60 Descending Boston Center
08:58AM 41.8808 -72.8417 20° North 125 144 3,400  Level Boston Center
08:59AM 41.9142 -72.8222 23° Northeast 125 144 3,500  Climbing Boston Center
09:01AM 41.9517 -72.8031 21° North 126 145 3,500  Level Boston Center
09:02AM 41.9892 -72.7836 21° North 124 143 3,500 -240 Level Boston Center
09:03AM 42.0228 -72.7642 23° Northeast 135 155 3,100 -660 Descending Boston Center
09:04AM 42.0542 -72.7419 28° Northeast 138 159 2,300 -840 Descending Boston Center
09:05AM 42.0894 -72.7339 10° North 139 160 1,600 -660 Descending Boston Center
09:06AM 42.1228 -72.7283 North 106 122 1,000 -600 Descending Boston Center